sensor_id;sensor_type;location;lat;lon;timestamp;temperature;humidity
5743;DHT22;2896;53.500;10.020;2024-03-06T00:00:11;4.50;99.90
5743;DHT22;2896;53.500;10.020;2024-03-06T00:02:39;4.50;99.90
5743;DHT22;2896;53.500;10.020;2024-03-06T00:05:06;4.50;99.90
5743;DHT22;2896;53.500;10.020;2024-03-06T00:07:33;4.60;99.90
5743;DHT22;2896;53.500;10.020;2024-03-06T00:10:01;4.60;99.90
5743;DHT22;2896;53.500;10.020;2024-03-06T00:12:29;4.50;99.90
5743;DHT22;2896;53.500;10.020;2024-03-06T00:14:56;4.50;99.90
5743;DHT22;2896;53.500;10.020;2024-03-06T00:22:16;4.50;99.90
5743;DHT22;2896;53.500;10.020;2024-03-06T00:27:11;4.40;99.90
5743;DHT22;2896;53.500;10.020;2024-03-06T00:29:38;4.40;99.90
5743;DHT22;2896;53.500;10.020;2024-03-06T00:34:32;4.50;99.90
5743;DHT22;2896;53.500;10.020;2024-03-06T00:36:59;4.40;99.90
5743;DHT22;2896;53.500;10.020;2024-03-06T00:41:53;4.40;99.90
5743;DHT22;2896;53.500;10.020;2024-03-06T00:44:21;4.40;99.90
5743;DHT22;2896;53.500;10.020;2024-03-06T00:46:47;4.40;99.90
5743;DHT22;2896;53.500;10.020;2024-03-06T00:56:37;4.40;99.90
5743;DHT22;2896;53.500;10.020;2024-03-06T01:01:32;4.30;99.90
5743;DHT22;2896;53.500;10.020;2024-03-06T01:03:59;4.30;99.90
5743;DHT22;2896;53.500;10.020;2024-03-06T01:08:53;4.30;99.90
5743;DHT22;2896;53.500;10.020;2024-03-06T01:16:14;4.40;99.90
5743;DHT22;2896;53.500;10.020;2024-03-06T01:18:42;4.40;99.90
5743;DHT22;2896;53.500;10.020;2024-03-06T01:23:35;4.40;99.90
5743;DHT22;2896;53.500;10.020;2024-03-06T01:26:02;4.40;99.90
5743;DHT22;2896;53.500;10.020;2024-03-06T01:35:52;4.40;99.90
5743;DHT22;2896;53.500;10.020;2024-03-06T01:40:47;4.40;99.90
5743;DHT22;2896;53.500;10.020;2024-03-06T01:43:20;4.50;99.90
5743;DHT22;2896;53.500;10.020;2024-03-06T01:45:47;4.40;99.90
5743;DHT22;2896;53.500;10.020;2024-03-06T01:50:41;4.40;99.90
5743;DHT22;2896;53.500;10.020;2024-03-06T01:53:10;4.40;99.90
5743;DHT22;2896;53.500;10.020;2024-03-06T01:55:37;4.30;99.90
5743;DHT22;2896;53.500;10.020;2024-03-06T01:58:04;4.30;99.90
5743;DHT22;2896;53.500;10.020;2024-03-06T02:00:31;4.30;99.90
5743;DHT22;2896;53.500;10.020;2024-03-06T02:05:27;4.30;99.90
5743;DHT22;2896;53.500;10.020;2024-03-06T02:07:57;4.30;99.90
5743;DHT22;2896;53.500;10.020;2024-03-06T02:10:26;4.30;99.90
5743;DHT22;2896;53.500;10.020;2024-03-06T02:17:46;4.30;99.90
5743;DHT22;2896;53.500;10.020;2024-03-06T02:20:13;4.30;99.90
5743;DHT22;2896;53.500;10.020;2024-03-06T02:22:42;4.20;99.90
5743;DHT22;2896;53.500;10.020;2024-03-06T02:25:09;4.20;99.90
5743;DHT22;2896;53.500;10.020;2024-03-06T02:30:05;4.20;99.90
5743;DHT22;2896;53.500;10.020;2024-03-06T02:35:00;4.10;99.90
5743;DHT22;2896;53.500;10.020;2024-03-06T02:39:56;3.90;99.90
5743;DHT22;2896;53.500;10.020;2024-03-06T02:42:22;3.80;99.90
5743;DHT22;2896;53.500;10.020;2024-03-06T02:44:49;3.80;99.90
5743;DHT22;2896;53.500;10.020;2024-03-06T02:47:16;3.80;99.90
5743;DHT22;2896;53.500;10.020;2024-03-06T02:57:05;3.70;99.90
5743;DHT22;2896;53.500;10.020;2024-03-06T02:59:32;3.60;99.90
5743;DHT22;2896;53.500;10.020;2024-03-06T03:04:26;3.40;99.90
5743;DHT22;2896;53.500;10.020;2024-03-06T03:06:53;3.40;99.90
5743;DHT22;2896;53.500;10.020;2024-03-06T03:09:20;3.40;99.90
5743;DHT22;2896;53.500;10.020;2024-03-06T03:11:46;3.30;99.90
5743;DHT22;2896;53.500;10.020;2024-03-06T03:14:14;4.90;99.90
5743;DHT22;2896;53.500;10.020;2024-03-06T03:24:03;3.10;99.90
5743;DHT22;2896;53.500;10.020;2024-03-06T03:26:29;3.00;99.90
5743;DHT22;2896;53.500;10.020;2024-03-06T03:31:24;3.00;99.90
5743;DHT22;2896;53.500;10.020;2024-03-06T03:36:18;2.80;99.90
5743;DHT22;2896;53.500;10.020;2024-03-06T03:43:39;2.80;99.90
5743;DHT22;2896;53.500;10.020;2024-03-06T03:46:06;2.70;99.90
5743;DHT22;2896;53.500;10.020;2024-03-06T03:48:34;2.70;99.90
5743;DHT22;2896;53.500;10.020;2024-03-06T03:51:02;2.70;99.90
5743;DHT22;2896;53.500;10.020;2024-03-06T03:53:29;2.70;99.90
5743;DHT22;2896;53.500;10.020;2024-03-06T03:55:56;2.60;99.90
5743;DHT22;2896;53.500;10.020;2024-03-06T03:58:23;2.60;99.90
5743;DHT22;2896;53.500;10.020;2024-03-06T04:00:49;2.60;99.90
5743;DHT22;2896;53.500;10.020;2024-03-06T04:03:18;2.50;99.90
5743;DHT22;2896;53.500;10.020;2024-03-06T04:05:46;2.50;99.90
5743;DHT22;2896;53.500;10.020;2024-03-06T04:08:13;2.40;99.90
5743;DHT22;2896;53.500;10.020;2024-03-06T04:10:41;2.40;99.90
5743;DHT22;2896;53.500;10.020;2024-03-06T04:13:10;2.40;99.90
5743;DHT22;2896;53.500;10.020;2024-03-06T04:15:37;2.40;99.90
5743;DHT22;2896;53.500;10.020;2024-03-06T04:18:04;2.40;99.90
5743;DHT22;2896;53.500;10.020;2024-03-06T04:20:30;2.50;99.90
5743;DHT22;2896;53.500;10.020;2024-03-06T04:22:58;2.50;99.90
5743;DHT22;2896;53.500;10.020;2024-03-06T04:25:25;2.50;99.90
5743;DHT22;2896;53.500;10.020;2024-03-06T04:27:51;2.50;99.90
5743;DHT22;2896;53.500;10.020;2024-03-06T04:30:18;2.50;99.90
5743;DHT22;2896;53.500;10.020;2024-03-06T04:32:45;2.40;99.90
5743;DHT22;2896;53.500;10.020;2024-03-06T04:35:11;2.40;99.90
5743;DHT22;2896;53.500;10.020;2024-03-06T04:37:38;2.30;99.90
5743;DHT22;2896;53.500;10.020;2024-03-06T04:40:08;2.30;99.90
5743;DHT22;2896;53.500;10.020;2024-03-06T04:42:35;2.30;99.90
5743;DHT22;2896;53.500;10.020;2024-03-06T04:45:02;2.30;99.90
5743;DHT22;2896;53.500;10.020;2024-03-06T04:47:29;2.20;99.90
5743;DHT22;2896;53.500;10.020;2024-03-06T04:52:24;2.20;99.90
5743;DHT22;2896;53.500;10.020;2024-03-06T04:54:50;2.10;99.90
5743;DHT22;2896;53.500;10.020;2024-03-06T04:57:18;2.10;99.90
5743;DHT22;2896;53.500;10.020;2024-03-06T04:59:45;2.10;99.90
5743;DHT22;2896;53.500;10.020;2024-03-06T05:02:12;2.00;99.90
5743;DHT22;2896;53.500;10.020;2024-03-06T05:07:05;2.00;99.90
5743;DHT22;2896;53.500;10.020;2024-03-06T05:09:32;1.90;99.90
5743;DHT22;2896;53.500;10.020;2024-03-06T05:11:59;1.70;99.90
5743;DHT22;2896;53.500;10.020;2024-03-06T05:14:26;1.60;99.90
5743;DHT22;2896;53.500;10.020;2024-03-06T05:16:53;1.60;99.90
5743;DHT22;2896;53.500;10.020;2024-03-06T05:19:20;1.50;99.90
5743;DHT22;2896;53.500;10.020;2024-03-06T05:26:40;1.30;99.90
5743;DHT22;2896;53.500;10.020;2024-03-06T05:31:35;1.10;99.90
5743;DHT22;2896;53.500;10.020;2024-03-06T05:34:02;1.10;99.90
5743;DHT22;2896;53.500;10.020;2024-03-06T05:36:30;1.00;99.90
5743;DHT22;2896;53.500;10.020;2024-03-06T05:38:57;1.00;99.90
5743;DHT22;2896;53.500;10.020;2024-03-06T05:43:50;0.80;99.90
5743;DHT22;2896;53.500;10.020;2024-03-06T05:48:46;0.80;99.90
5743;DHT22;2896;53.500;10.020;2024-03-06T05:53:39;0.70;99.90
5743;DHT22;2896;53.500;10.020;2024-03-06T05:56:08;0.60;99.90
5743;DHT22;2896;53.500;10.020;2024-03-06T05:58:35;0.60;99.90
5743;DHT22;2896;53.500;10.020;2024-03-06T06:01:01;0.60;99.90
5743;DHT22;2896;53.500;10.020;2024-03-06T06:03:28;0.50;99.90
5743;DHT22;2896;53.500;10.020;2024-03-06T06:05:56;0.50;99.90
5743;DHT22;2896;53.500;10.020;2024-03-06T06:10:51;0.40;99.90
5743;DHT22;2896;53.500;10.020;2024-03-06T06:13:18;0.40;99.90
5743;DHT22;2896;53.500;10.020;2024-03-06T06:20:40;0.40;99.90
5743;DHT22;2896;53.500;10.020;2024-03-06T06:23:08;0.30;99.90
5743;DHT22;2896;53.500;10.020;2024-03-06T06:25:35;0.40;99.90
5743;DHT22;2896;53.500;10.020;2024-03-06T06:28:01;0.30;99.90
5743;DHT22;2896;53.500;10.020;2024-03-06T06:32:55;0.50;99.90
5743;DHT22;2896;53.500;10.020;2024-03-06T06:35:22;0.50;99.90
5743;DHT22;2896;53.500;10.020;2024-03-06T06:40:18;1.10;99.90
5743;DHT22;2896;53.500;10.020;2024-03-06T06:42:47;1.60;99.90
5743;DHT22;2896;53.500;10.020;2024-03-06T06:47:42;2.20;99.90
5743;DHT22;2896;53.500;10.020;2024-03-06T06:50:09;2.30;99.90
5743;DHT22;2896;53.500;10.020;2024-03-06T06:52:37;2.30;99.90
5743;DHT22;2896;53.500;10.020;2024-03-06T06:55:04;2.40;99.90
5743;DHT22;2896;53.500;10.020;2024-03-06T06:57:32;2.50;99.90
5743;DHT22;2896;53.500;10.020;2024-03-06T06:59:59;2.50;99.90
5743;DHT22;2896;53.500;10.020;2024-03-06T07:02:26;2.50;99.90
5743;DHT22;2896;53.500;10.020;2024-03-06T07:04:53;2.50;99.90
5743;DHT22;2896;53.500;10.020;2024-03-06T07:07:19;2.60;99.90
5743;DHT22;2896;53.500;10.020;2024-03-06T07:09:47;2.70;99.90
5743;DHT22;2896;53.500;10.020;2024-03-06T07:12:14;2.80;99.90
5743;DHT22;2896;53.500;10.020;2024-03-06T07:14:42;3.10;99.90
5743;DHT22;2896;53.500;10.020;2024-03-06T07:17:09;3.00;99.90
5743;DHT22;2896;53.500;10.020;2024-03-06T07:19:35;3.10;99.90
5743;DHT22;2896;53.500;10.020;2024-03-06T07:22:02;3.10;99.90
5743;DHT22;2896;53.500;10.020;2024-03-06T07:24:28;3.30;99.90
5743;DHT22;2896;53.500;10.020;2024-03-06T07:26:55;3.40;99.90
5743;DHT22;2896;53.500;10.020;2024-03-06T07:29:22;3.60;99.90
5743;DHT22;2896;53.500;10.020;2024-03-06T07:31:50;3.80;99.90
5743;DHT22;2896;53.500;10.020;2024-03-06T07:34:16;3.90;99.90
5743;DHT22;2896;53.500;10.020;2024-03-06T07:39:11;4.10;99.90
5743;DHT22;2896;53.500;10.020;2024-03-06T07:44:07;4.40;99.90
5743;DHT22;2896;53.500;10.020;2024-03-06T07:46:34;4.40;99.90
5743;DHT22;2896;53.500;10.020;2024-03-06T07:49:02;4.40;99.90
5743;DHT22;2896;53.500;10.020;2024-03-06T07:51:30;4.50;99.90
5743;DHT22;2896;53.500;10.020;2024-03-06T07:53:57;4.70;99.90
5743;DHT22;2896;53.500;10.020;2024-03-06T07:56:23;4.80;99.90
5743;DHT22;2896;53.500;10.020;2024-03-06T07:58:50;4.90;99.90
5743;DHT22;2896;53.500;10.020;2024-03-06T08:01:17;5.10;99.90
5743;DHT22;2896;53.500;10.020;2024-03-06T08:03:44;5.20;99.90
5743;DHT22;2896;53.500;10.020;2024-03-06T08:06:11;5.30;99.90
5743;DHT22;2896;53.500;10.020;2024-03-06T08:08:40;5.70;99.90
5743;DHT22;2896;53.500;10.020;2024-03-06T08:11:07;5.50;99.90
5743;DHT22;2896;53.500;10.020;2024-03-06T08:13:35;5.60;99.90
5743;DHT22;2896;53.500;10.020;2024-03-06T08:16:02;5.70;99.90
5743;DHT22;2896;53.500;10.020;2024-03-06T08:18:29;5.40;99.90
5743;DHT22;2896;53.500;10.020;2024-03-06T08:20:56;5.50;99.90
5743;DHT22;2896;53.500;10.020;2024-03-06T08:23:24;5.60;99.90
5743;DHT22;2896;53.500;10.020;2024-03-06T08:25:50;5.90;99.90
5743;DHT22;2896;53.500;10.020;2024-03-06T08:28:17;6.00;99.90
5743;DHT22;2896;53.500;10.020;2024-03-06T08:30:44;6.20;38.70
5743;DHT22;2896;53.500;10.020;2024-03-06T08:33:11;6.30;1.00
5743;DHT22;2896;53.500;10.020;2024-03-06T08:35:37;6.30;1.00
5743;DHT22;2896;53.500;10.020;2024-03-06T08:38:04;6.40;1.00
5743;DHT22;2896;53.500;10.020;2024-03-06T08:40:34;6.40;1.00
5743;DHT22;2896;53.500;10.020;2024-03-06T08:43:01;6.40;1.00
5743;DHT22;2896;53.500;10.020;2024-03-06T08:45:28;6.50;1.00
5743;DHT22;2896;53.500;10.020;2024-03-06T08:47:54;6.50;99.90
5743;DHT22;2896;53.500;10.020;2024-03-06T08:50:21;6.60;1.00
5743;DHT22;2896;53.500;10.020;2024-03-06T08:52:48;6.80;99.90
5743;DHT22;2896;53.500;10.020;2024-03-06T08:55:14;6.90;99.90
5743;DHT22;2896;53.500;10.020;2024-03-06T08:57:43;7.10;99.90
5743;DHT22;2896;53.500;10.020;2024-03-06T09:00:10;7.20;1.00
5743;DHT22;2896;53.500;10.020;2024-03-06T09:02:37;7.10;99.90
5743;DHT22;2896;53.500;10.020;2024-03-06T09:05:06;7.20;83.20
5743;DHT22;2896;53.500;10.020;2024-03-06T09:07:34;7.20;99.90
5743;DHT22;2896;53.500;10.020;2024-03-06T09:10:04;7.20;1.00
5743;DHT22;2896;53.500;10.020;2024-03-06T09:12:31;7.30;99.90
5743;DHT22;2896;53.500;10.020;2024-03-06T09:15:00;7.10;1.00
5743;DHT22;2896;53.500;10.020;2024-03-06T09:17:27;6.70;1.00
5743;DHT22;2896;53.500;10.020;2024-03-06T09:19:54;6.70;58.60
5743;DHT22;2896;53.500;10.020;2024-03-06T09:22:21;6.90;11.90
5743;DHT22;2896;53.500;10.020;2024-03-06T09:24:48;6.90;99.90
5743;DHT22;2896;53.500;10.020;2024-03-06T09:27:15;6.90;1.00
5743;DHT22;2896;53.500;10.020;2024-03-06T09:29:42;7.20;1.00
5743;DHT22;2896;53.500;10.020;2024-03-06T09:32:10;7.10;1.00
5743;DHT22;2896;53.500;10.020;2024-03-06T09:34:41;7.00;99.90
5743;DHT22;2896;53.500;10.020;2024-03-06T09:37:08;7.30;99.90
5743;DHT22;2896;53.500;10.020;2024-03-06T09:39:35;7.40;99.90
5743;DHT22;2896;53.500;10.020;2024-03-06T09:42:01;7.80;99.90
5743;DHT22;2896;53.500;10.020;2024-03-06T09:44:29;7.90;99.90
5743;DHT22;2896;53.500;10.020;2024-03-06T09:46:59;8.30;1.00
5743;DHT22;2896;53.500;10.020;2024-03-06T09:49:30;8.50;1.00
5743;DHT22;2896;53.500;10.020;2024-03-06T09:51:58;8.50;99.90
5743;DHT22;2896;53.500;10.020;2024-03-06T09:54:26;8.50;1.00
5743;DHT22;2896;53.500;10.020;2024-03-06T09:56:53;8.50;1.00
5743;DHT22;2896;53.500;10.020;2024-03-06T09:59:23;8.50;99.90
5743;DHT22;2896;53.500;10.020;2024-03-06T10:01:54;8.50;1.00
5743;DHT22;2896;53.500;10.020;2024-03-06T10:04:22;8.60;63.30
5743;DHT22;2896;53.500;10.020;2024-03-06T10:06:53;8.60;99.90
5743;DHT22;2896;53.500;10.020;2024-03-06T10:09:21;8.40;99.90
5743;DHT22;2896;53.500;10.020;2024-03-06T10:11:48;7.90;1.00
5743;DHT22;2896;53.500;10.020;2024-03-06T10:14:15;7.90;99.90
5743;DHT22;2896;53.500;10.020;2024-03-06T10:16:55;8.10;55.70
5743;DHT22;2896;53.500;10.020;2024-03-06T10:19:24;8.40;1.00
5743;DHT22;2896;53.500;10.020;2024-03-06T10:21:54;8.30;1.00
5743;DHT22;2896;53.500;10.020;2024-03-06T10:24:23;8.00;1.00
5743;DHT22;2896;53.500;10.020;2024-03-06T10:26:51;7.80;99.90
5743;DHT22;2896;53.500;10.020;2024-03-06T10:29:20;7.90;1.00
5743;DHT22;2896;53.500;10.020;2024-03-06T10:31:51;8.30;1.00
5743;DHT22;2896;53.500;10.020;2024-03-06T10:34:18;8.30;1.00
5743;DHT22;2896;53.500;10.020;2024-03-06T10:36:45;8.30;1.00
5743;DHT22;2896;53.500;10.020;2024-03-06T10:39:14;8.30;1.00
5743;DHT22;2896;53.500;10.020;2024-03-06T10:41:42;8.10;99.90
5743;DHT22;2896;53.500;10.020;2024-03-06T10:44:12;8.40;99.90
5743;DHT22;2896;53.500;10.020;2024-03-06T10:46:43;8.50;99.90
5743;DHT22;2896;53.500;10.020;2024-03-06T10:49:12;8.40;98.30
5743;DHT22;2896;53.500;10.020;2024-03-06T10:51:40;8.30;99.90
5743;DHT22;2896;53.500;10.020;2024-03-06T10:54:09;8.70;1.00
5743;DHT22;2896;53.500;10.020;2024-03-06T10:56:40;9.10;99.90
5743;DHT22;2896;53.500;10.020;2024-03-06T10:59:10;9.70;99.90
5743;DHT22;2896;53.500;10.020;2024-03-06T11:01:37;9.60;99.90
5743;DHT22;2896;53.500;10.020;2024-03-06T11:04:05;9.70;1.00
5743;DHT22;2896;53.500;10.020;2024-03-06T11:06:33;10.00;88.60
5743;DHT22;2896;53.500;10.020;2024-03-06T11:09:00;9.90;99.90
5743;DHT22;2896;53.500;10.020;2024-03-06T11:11:27;9.80;1.00
5743;DHT22;2896;53.500;10.020;2024-03-06T11:14:00;9.80;1.00
5743;DHT22;2896;53.500;10.020;2024-03-06T11:16:28;9.50;1.00
5743;DHT22;2896;53.500;10.020;2024-03-06T11:19:05;9.70;1.00
5743;DHT22;2896;53.500;10.020;2024-03-06T11:21:32;10.20;99.90
5743;DHT22;2896;53.500;10.020;2024-03-06T11:24:20;10.80;1.00
5743;DHT22;2896;53.500;10.020;2024-03-06T11:26:49;11.00;99.90
5743;DHT22;2896;53.500;10.020;2024-03-06T11:29:18;11.10;99.90
5743;DHT22;2896;53.500;10.020;2024-03-06T11:32:05;11.50;99.90
5743;DHT22;2896;53.500;10.020;2024-03-06T11:34:33;11.60;99.90
5743;DHT22;2896;53.500;10.020;2024-03-06T11:37:03;12.10;1.00
5743;DHT22;2896;53.500;10.020;2024-03-06T11:39:34;12.20;1.00
5743;DHT22;2896;53.500;10.020;2024-03-06T11:42:02;12.30;1.00
5743;DHT22;2896;53.500;10.020;2024-03-06T11:44:32;12.50;5.50
5743;DHT22;2896;53.500;10.020;2024-03-06T11:46:59;12.70;99.90
5743;DHT22;2896;53.500;10.020;2024-03-06T11:49:27;12.40;99.90
5743;DHT22;2896;53.500;10.020;2024-03-06T11:51:58;12.60;99.90
5743;DHT22;2896;53.500;10.020;2024-03-06T11:54:25;12.70;99.90
5743;DHT22;2896;53.500;10.020;2024-03-06T11:56:54;13.10;1.00
5743;DHT22;2896;53.500;10.020;2024-03-06T11:59:21;13.20;1.00
5743;DHT22;2896;53.500;10.020;2024-03-06T12:01:50;13.20;1.00
5743;DHT22;2896;53.500;10.020;2024-03-06T12:04:18;13.20;99.90
5743;DHT22;2896;53.500;10.020;2024-03-06T12:06:45;13.70;1.00
5743;DHT22;2896;53.500;10.020;2024-03-06T12:09:11;14.10;1.00
5743;DHT22;2896;53.500;10.020;2024-03-06T12:11:38;13.90;1.00
5743;DHT22;2896;53.500;10.020;2024-03-06T12:14:05;14.00;1.00
5743;DHT22;2896;53.500;10.020;2024-03-06T12:16:31;13.60;1.00
5743;DHT22;2896;53.500;10.020;2024-03-06T12:19:00;13.80;1.00
5743;DHT22;2896;53.500;10.020;2024-03-06T12:21:31;13.20;1.00
5743;DHT22;2896;53.500;10.020;2024-03-06T12:24:04;13.30;1.00
5743;DHT22;2896;53.500;10.020;2024-03-06T12:26:31;13.30;1.00
5743;DHT22;2896;53.500;10.020;2024-03-06T12:29:05;13.70;1.00
5743;DHT22;2896;53.500;10.020;2024-03-06T12:31:33;14.10;1.00
5743;DHT22;2896;53.500;10.020;2024-03-06T12:34:02;14.60;1.00
5743;DHT22;2896;53.500;10.020;2024-03-06T12:36:29;14.90;1.00
5743;DHT22;2896;53.500;10.020;2024-03-06T12:38:58;15.20;1.00
5743;DHT22;2896;53.500;10.020;2024-03-06T12:41:25;15.20;1.00
5743;DHT22;2896;53.500;10.020;2024-03-06T12:43:53;15.20;1.00
5743;DHT22;2896;53.500;10.020;2024-03-06T12:46:20;15.50;1.00
5743;DHT22;2896;53.500;10.020;2024-03-06T12:48:47;14.70;1.00
5743;DHT22;2896;53.500;10.020;2024-03-06T12:51:15;13.60;1.00
5743;DHT22;2896;53.500;10.020;2024-03-06T12:53:41;14.20;1.00
5743;DHT22;2896;53.500;10.020;2024-03-06T12:56:08;13.00;1.00
5743;DHT22;2896;53.500;10.020;2024-03-06T12:58:35;11.90;99.90
5743;DHT22;2896;53.500;10.020;2024-03-06T13:01:02;11.70;99.90
5743;DHT22;2896;53.500;10.020;2024-03-06T13:03:28;11.50;99.90
5743;DHT22;2896;53.500;10.020;2024-03-06T13:05:55;11.60;99.90
5743;DHT22;2896;53.500;10.020;2024-03-06T13:08:23;11.80;99.90
5743;DHT22;2896;53.500;10.020;2024-03-06T13:10:50;11.80;99.90
5743;DHT22;2896;53.500;10.020;2024-03-06T13:13:17;11.80;99.90
5743;DHT22;2896;53.500;10.020;2024-03-06T13:15:43;12.00;99.90
5743;DHT22;2896;53.500;10.020;2024-03-06T13:18:11;12.10;99.90
5743;DHT22;2896;53.500;10.020;2024-03-06T13:20:38;11.10;99.90
5743;DHT22;2896;53.500;10.020;2024-03-06T13:23:05;12.10;99.90
5743;DHT22;2896;53.500;10.020;2024-03-06T13:25:33;10.00;99.90
5743;DHT22;2896;53.500;10.020;2024-03-06T13:28:00;10.00;99.90
5743;DHT22;2896;53.500;10.020;2024-03-06T13:30:27;9.90;99.90
5743;DHT22;2896;53.500;10.020;2024-03-06T13:32:53;10.40;99.90
5743;DHT22;2896;53.500;10.020;2024-03-06T13:35:20;10.60;99.90
5743;DHT22;2896;53.500;10.020;2024-03-06T13:37:47;10.70;99.90
5743;DHT22;2896;53.500;10.020;2024-03-06T13:40:14;10.80;99.90
5743;DHT22;2896;53.500;10.020;2024-03-06T13:42:43;10.70;99.90
5743;DHT22;2896;53.500;10.020;2024-03-06T13:45:10;10.60;99.90
5743;DHT22;2896;53.500;10.020;2024-03-06T13:47:38;10.50;99.90
5743;DHT22;2896;53.500;10.020;2024-03-06T13:50:07;10.00;99.90
5743;DHT22;2896;53.500;10.020;2024-03-06T13:52:34;10.30;99.90
5743;DHT22;2896;53.500;10.020;2024-03-06T13:55:01;9.80;99.90
5743;DHT22;2896;53.500;10.020;2024-03-06T13:57:30;10.00;99.90
5743;DHT22;2896;53.500;10.020;2024-03-06T14:00:00;9.60;99.90
5743;DHT22;2896;53.500;10.020;2024-03-06T14:02:27;9.60;99.90
5743;DHT22;2896;53.500;10.020;2024-03-06T14:04:53;9.80;99.90
5743;DHT22;2896;53.500;10.020;2024-03-06T14:07:20;10.20;99.90
5743;DHT22;2896;53.500;10.020;2024-03-06T14:09:46;10.60;99.90
5743;DHT22;2896;53.500;10.020;2024-03-06T14:12:14;11.30;99.90
5743;DHT22;2896;53.500;10.020;2024-03-06T14:14:40;11.70;99.90
5743;DHT22;2896;53.500;10.020;2024-03-06T14:17:08;12.10;99.90
5743;DHT22;2896;53.500;10.020;2024-03-06T14:19:35;12.50;99.90
5743;DHT22;2896;53.500;10.020;2024-03-06T14:22:01;12.40;99.90
5743;DHT22;2896;53.500;10.020;2024-03-06T14:24:28;12.60;99.90
5743;DHT22;2896;53.500;10.020;2024-03-06T14:26:55;12.30;99.90
5743;DHT22;2896;53.500;10.020;2024-03-06T14:29:22;11.90;99.90
5743;DHT22;2896;53.500;10.020;2024-03-06T14:31:48;11.60;99.90
5743;DHT22;2896;53.500;10.020;2024-03-06T14:34:16;11.40;99.90
5743;DHT22;2896;53.500;10.020;2024-03-06T14:36:43;11.30;99.90
5743;DHT22;2896;53.500;10.020;2024-03-06T14:39:09;11.60;99.90
5743;DHT22;2896;53.500;10.020;2024-03-06T14:41:36;11.40;99.90
5743;DHT22;2896;53.500;10.020;2024-03-06T14:44:03;11.30;99.90
5743;DHT22;2896;53.500;10.020;2024-03-06T14:46:30;11.70;99.90
5743;DHT22;2896;53.500;10.020;2024-03-06T14:48:56;12.20;99.90
5743;DHT22;2896;53.500;10.020;2024-03-06T14:51:24;11.50;99.90
5743;DHT22;2896;53.500;10.020;2024-03-06T14:53:52;10.80;99.90
5743;DHT22;2896;53.500;10.020;2024-03-06T14:56:19;10.70;99.90
5743;DHT22;2896;53.500;10.020;2024-03-06T14:58:47;10.70;99.90
5743;DHT22;2896;53.500;10.020;2024-03-06T15:01:13;10.40;99.90
5743;DHT22;2896;53.500;10.020;2024-03-06T15:03:40;10.30;99.90
5743;DHT22;2896;53.500;10.020;2024-03-06T15:06:07;10.20;99.90
5743;DHT22;2896;53.500;10.020;2024-03-06T15:08:35;10.90;99.90
5743;DHT22;2896;53.500;10.020;2024-03-06T15:11:01;11.00;99.90
5743;DHT22;2896;53.500;10.020;2024-03-06T15:13:28;11.10;99.90
5743;DHT22;2896;53.500;10.020;2024-03-06T15:15:55;11.10;99.90
5743;DHT22;2896;53.500;10.020;2024-03-06T15:18:22;11.30;99.90
5743;DHT22;2896;53.500;10.020;2024-03-06T15:20:49;11.60;99.90
5743;DHT22;2896;53.500;10.020;2024-03-06T15:23:17;11.70;99.90
5743;DHT22;2896;53.500;10.020;2024-03-06T15:25:45;11.20;99.90
5743;DHT22;2896;53.500;10.020;2024-03-06T15:28:11;10.80;99.90
5743;DHT22;2896;53.500;10.020;2024-03-06T15:30:38;10.50;99.90
5743;DHT22;2896;53.500;10.020;2024-03-06T15:33:05;10.50;99.90
5743;DHT22;2896;53.500;10.020;2024-03-06T15:35:32;10.70;99.90
5743;DHT22;2896;53.500;10.020;2024-03-06T15:37:59;10.20;99.90
5743;DHT22;2896;53.500;10.020;2024-03-06T15:40:26;10.50;99.90
5743;DHT22;2896;53.500;10.020;2024-03-06T15:42:54;9.80;99.90
5743;DHT22;2896;53.500;10.020;2024-03-06T15:45:21;9.80;99.90
5743;DHT22;2896;53.500;10.020;2024-03-06T15:47:48;9.80;99.90
5743;DHT22;2896;53.500;10.020;2024-03-06T15:50:15;9.70;99.90
5743;DHT22;2896;53.500;10.020;2024-03-06T15:52:41;9.50;99.90
5743;DHT22;2896;53.500;10.020;2024-03-06T15:55:09;9.40;99.90
5743;DHT22;2896;53.500;10.020;2024-03-06T15:57:36;9.20;99.90
5743;DHT22;2896;53.500;10.020;2024-03-06T16:00:06;9.20;99.90
5743;DHT22;2896;53.500;10.020;2024-03-06T16:02:33;9.10;99.90
5743;DHT22;2896;53.500;10.020;2024-03-06T16:05:00;8.60;99.90
5743;DHT22;2896;53.500;10.020;2024-03-06T16:07:26;8.70;99.90
5743;DHT22;2896;53.500;10.020;2024-03-06T16:09:53;8.40;99.90
5743;DHT22;2896;53.500;10.020;2024-03-06T16:12:20;8.10;99.90
5743;DHT22;2896;53.500;10.020;2024-03-06T16:14:46;8.10;99.90
5743;DHT22;2896;53.500;10.020;2024-03-06T16:17:14;8.10;1.00
5743;DHT22;2896;53.500;10.020;2024-03-06T16:19:41;7.80;1.00
5743;DHT22;2896;53.500;10.020;2024-03-06T16:22:08;7.80;99.90
5743;DHT22;2896;53.500;10.020;2024-03-06T16:24:34;7.90;1.00
5743;DHT22;2896;53.500;10.020;2024-03-06T16:27:01;7.80;99.90
5743;DHT22;2896;53.500;10.020;2024-03-06T16:29:28;7.70;99.90
5743;DHT22;2896;53.500;10.020;2024-03-06T16:31:55;7.50;1.00
5743;DHT22;2896;53.500;10.020;2024-03-06T16:34:24;7.50;99.90
5743;DHT22;2896;53.500;10.020;2024-03-06T16:36:50;7.30;99.90
5743;DHT22;2896;53.500;10.020;2024-03-06T16:39:17;7.30;5.90
5743;DHT22;2896;53.500;10.020;2024-03-06T16:41:44;7.20;1.00
5743;DHT22;2896;53.500;10.020;2024-03-06T16:44:11;7.10;63.40
5743;DHT22;2896;53.500;10.020;2024-03-06T16:46:39;7.00;99.90
5743;DHT22;2896;53.500;10.020;2024-03-06T16:49:06;6.80;1.00
5743;DHT22;2896;53.500;10.020;2024-03-06T16:51:34;6.80;1.00
5743;DHT22;2896;53.500;10.020;2024-03-06T16:54:01;6.60;1.00
5743;DHT22;2896;53.500;10.020;2024-03-06T16:56:29;6.60;99.90
5743;DHT22;2896;53.500;10.020;2024-03-06T16:58:56;6.60;99.90
5743;DHT22;2896;53.500;10.020;2024-03-06T17:01:23;6.50;1.00
5743;DHT22;2896;53.500;10.020;2024-03-06T17:03:50;6.40;1.00
5743;DHT22;2896;53.500;10.020;2024-03-06T17:06:16;6.40;1.00
5743;DHT22;2896;53.500;10.020;2024-03-06T17:08:44;6.30;1.00
5743;DHT22;2896;53.500;10.020;2024-03-06T17:11:11;6.10;1.00
5743;DHT22;2896;53.500;10.020;2024-03-06T17:13:39;6.10;1.00
5743;DHT22;2896;53.500;10.020;2024-03-06T17:16:06;6.00;1.00
5743;DHT22;2896;53.500;10.020;2024-03-06T17:18:33;6.00;1.00
5743;DHT22;2896;53.500;10.020;2024-03-06T17:21:00;6.00;45.40
5743;DHT22;2896;53.500;10.020;2024-03-06T17:23:27;5.80;46.50
5743;DHT22;2896;53.500;10.020;2024-03-06T17:25:55;5.70;99.90
5743;DHT22;2896;53.500;10.020;2024-03-06T17:28:22;5.60;99.90
5743;DHT22;2896;53.500;10.020;2024-03-06T17:30:49;5.60;99.90
5743;DHT22;2896;53.500;10.020;2024-03-06T17:33:17;5.50;99.90
5743;DHT22;2896;53.500;10.020;2024-03-06T17:35:44;5.50;99.90
5743;DHT22;2896;53.500;10.020;2024-03-06T17:38:14;5.40;99.90
5743;DHT22;2896;53.500;10.020;2024-03-06T17:40:41;5.30;1.00
5743;DHT22;2896;53.500;10.020;2024-03-06T17:43:10;5.30;99.90
5743;DHT22;2896;53.500;10.020;2024-03-06T17:45:37;5.10;1.00
5743;DHT22;2896;53.500;10.020;2024-03-06T17:48:04;5.10;1.00
5743;DHT22;2896;53.500;10.020;2024-03-06T17:50:31;5.00;1.00
5743;DHT22;2896;53.500;10.020;2024-03-06T17:52:59;5.00;1.00
5743;DHT22;2896;53.500;10.020;2024-03-06T17:55:26;5.00;1.00
5743;DHT22;2896;53.500;10.020;2024-03-06T17:57:53;5.10;1.00
5743;DHT22;2896;53.500;10.020;2024-03-06T18:00:21;5.00;1.00
5743;DHT22;2896;53.500;10.020;2024-03-06T18:02:47;4.80;1.00
5743;DHT22;2896;53.500;10.020;2024-03-06T18:05:14;4.70;1.00
5743;DHT22;2896;53.500;10.020;2024-03-06T18:07:42;4.80;1.00